ARKANSAS RIVER NAVIGATION REPORT
  LITTLE ROCK DISTRICT - U.S. ARMY CORPS OF ENGINEERS
  GENERATED: 20 FEB 2018 @  1:35
 
  NOTE: These data are not guaranteed to be valid or correct.
        RELEASES AND FLOWS ARE IN THOUSANDS OF CFS
  _____________________________________________________________________________
 
                  19FEB     19FEB      19FEB           20FEB          20FEB
                  @1200     @2400     AVERAGE      LATEST OBSERVED    PRECIP.
                  HOURS     HOURS      FLOW         DATA AND TIME     (7A-7A)
  _____________________________________________________________________________
 
  LD13 HW-ELEV    391.72    391.81                391.81  @  24:00       .09
  LD13 TW-ELEV    371.62    371.70                371.70  @  24:00
  LD13 RELEASE       .2        .2        .1          .2   @  24:00
 
  OZA.L&D HW-ELEV 371.83    371.94                371.94  @  24:00       .08
  OZA.L&D TW-ELEV 337.92    337.65                337.65  @  24:00
  OZA.L&D RELEASE    .3        .3        .4          .3   @  24:00
 
  DRD.L&D HW-ELEV 338.02    337.91                337.91  @  24:00       .02
  DRD.L&D TW-ELEV 284.63    285.60                285.60  @  24:00
  DRD.L&D RELEASE   0.0       0.0       1.2         0.0   @  24:00
 
  LD09 HW-ELEV    284.49    284.98                284.98  @  24:00      0.00
  LD09 TW-ELEV    265.31    265.10                265.10  @  24:00
  LD09 RELEASE      0.0       0.0       0.0         0.0   @  24:00
 
  LD08 HW-ELEV    265.31    265.16                265.16  @  24:00       .01
  LD08 TW-ELEV    249.78    249.26                249.26  @  24:00
  LD08 RELEASE      7.2       2.0       4.5         2.0   @  24:00
 
  LD07 HW-ELEV    249.23    249.16                249.16  @  24:00      0.00
  LD07 TW-ELEV    231.21    231.20                231.20  @  24:00
  LD07 RELEASE      7.9       3.2       6.4         3.2   @  24:00
 
  LD06 HW-ELEV    231.13    231.20                231.20  @  24:00      0.00
  LD06 TW-ELEV    213.13    213.19                213.19  @  24:00
  LD06 RELEASE      -.1       -.1       1.8         -.1   @  24:00
 
  LD05 HW-ELEV    213.13    213.32                213.32  @  24:00      0.00
  LD05 TW-ELEV    195.48    196.06                196.06  @  24:00
  LD05 RELEASE      1.7       6.8       5.9         6.8   @  24:00
 
  LD04 HW-ELEV    195.90    196.34                196.34  @  24:00      0.00
  LD04 TW-ELEV    182.51    182.51                182.51  @  24:00
  LD04 RELEASE      4.7       9.7                   9.7   @  24:00
 
  LD03 HW-ELEV    182.31    182.29                182.29  @  24:00      0.00
  LD03 TW-ELEV    162.63    162.96                162.96  @  24:00
  LD03 RELEASE      9.2       9.2                   9.2   @  16:00
 
  L02 HW-ELEV     162.37    162.32                162.32  @  24:00      0.00
 
  D02 HW-ELEV     162.20    162.16                162.16  @  24:00      0.00
  D02 TW-ELEV     131.53    132.03                132.03  @  24:00
  D02 RELEASE       7.9      10.1      10.1        10.1   @  24:00
 
  L01 TW-ELEV     140.26    140.56                140.56  @  24:00      0.00
 
  MPLD HW-ELEV    140.02    140.32                140.32  @  24:00      0.00	
  MPLD TW-ELEV    139.80    140.10                140.10  @  24:00
 
  WREC DIFF.         .24       .24                   .24
  CLARENDON FLOW   17.04     17.42     17.00       17.42  @  24:00
  HELENA STAGE     30.31     30.61                 30.61  @  24:00
  CAIRO STAGE      39.81     40.19                 40.19  @  24:00
  _____________________________________________________________________________